createdAt,value
2022-10-17T00:00:13.765Z,18.34
2022-10-17T00:02:42.470Z,18.35
2022-10-17T00:05:11.838Z,18.35
2022-10-17T00:07:41.454Z,17.97
2022-10-17T00:10:13.177Z,18.15
2022-10-17T00:12:45.262Z,18.09
2022-10-17T00:15:19.441Z,18.04
2022-10-17T00:17:51.067Z,17.94
2022-10-17T00:20:21.426Z,18.11
2022-10-17T00:22:49.805Z,18.17
2022-10-17T00:25:20.919Z,18.11
2022-10-17T00:27:52.220Z,18.16
2022-10-17T00:30:27.878Z,18.09
2022-10-17T00:32:57.618Z,18.08
2022-10-17T00:35:28.791Z,17.77
2022-10-17T00:37:57.494Z,17.86
2022-10-17T00:40:27.601Z,17.91
2022-10-17T00:42:56.707Z,17.22
2022-10-17T00:45:28.896Z,17.83
2022-10-17T00:48:02.385Z,17.83
2022-10-17T00:50:31.215Z,17.71
2022-10-17T00:53:03.285Z,17.43
2022-10-17T00:55:38.315Z,17.64
2022-10-17T00:58:08.468Z,17.65
2022-10-17T01:00:39.015Z,17.86
2022-10-17T01:03:08.410Z,17.57
2022-10-17T01:05:39.744Z,18.01
2022-10-17T01:08:12.139Z,17.89
2022-10-17T01:10:56.321Z,17.82
2022-10-17T01:13:31.563Z,17.76
2022-10-17T01:16:13.397Z,17.69
2022-10-17T01:18:59.766Z,17.67
2022-10-17T01:21:43.908Z,17.52
2022-10-17T01:25:04.245Z,17.72
2022-10-17T01:31:13.292Z,17.46
2022-10-17T01:34:05.947Z,17.38
2022-10-17T01:36:48.719Z,17.43
2022-10-17T01:39:30.274Z,17.34
2022-10-17T01:42:09.187Z,17.40
2022-10-17T01:44:46.058Z,17.39
2022-10-17T01:47:24.387Z,17.58
2022-10-17T01:49:56.097Z,17.75
2022-10-17T01:52:29.005Z,17.24
2022-10-17T01:55:04.771Z,17.65
2022-10-17T01:57:41.479Z,17.48
2022-10-17T02:00:16.706Z,17.52
2022-10-17T02:02:49.382Z,17.12
2022-10-17T02:05:20.230Z,17.44
2022-10-17T02:07:49.265Z,17.42
2022-10-17T02:10:32.423Z,17.40
2022-10-17T02:13:11.225Z,17.60
2022-10-17T02:16:28.970Z,17.42
2022-10-17T02:19:38.128Z,17.39
2022-10-17T02:22:25.142Z,17.79
2022-10-17T02:25:09.657Z,17.06
2022-10-17T02:27:50.058Z,17.64
2022-10-17T02:30:31.377Z,17.76
2022-10-17T02:33:07.182Z,18.01
2022-10-17T02:35:41.639Z,17.62
2022-10-17T02:38:12.717Z,17.81
2022-10-17T02:40:43.897Z,17.89
2022-10-17T02:43:14.398Z,17.71
2022-10-17T02:45:43.771Z,18.03
2022-10-17T02:48:24.349Z,17.86
2022-10-17T02:51:07.290Z,18.04
2022-10-17T02:53:45.472Z,18.26
2022-10-17T02:56:21.784Z,18.16
2022-10-17T02:59:08.894Z,18.08
2022-10-17T03:01:38.174Z,17.90
2022-10-17T03:04:10.658Z,18.05
2022-10-17T03:06:42.728Z,18.45
2022-10-17T03:09:14.005Z,18.34
2022-10-17T03:11:43.003Z,17.84
2022-10-17T03:14:12.544Z,18.05
2022-10-17T03:16:42.494Z,18.19
2022-10-17T03:19:12.306Z,17.98
2022-10-17T03:21:42.073Z,18.39
2022-10-17T03:24:12.475Z,17.91
2022-10-17T03:26:43.095Z,18.06
2022-10-17T03:29:12.397Z,18.08
2022-10-17T03:31:42.559Z,18.11
2022-10-17T03:34:11.922Z,18.33
2022-10-17T03:36:41.914Z,18.57
2022-10-17T03:39:10.447Z,18.03
2022-10-17T03:41:39.235Z,18.36
2022-10-17T03:44:07.625Z,18.37
2022-10-17T03:46:36.016Z,18.75
2022-10-17T03:49:04.764Z,18.22
2022-10-17T03:51:35.451Z,18.64
2022-10-17T03:54:05.743Z,18.26
2022-10-17T03:56:34.422Z,18.81
2022-10-17T03:59:03.780Z,18.38
2022-10-17T04:01:35.178Z,18.42
2022-10-17T04:04:03.820Z,18.47
2022-10-17T04:06:32.529Z,18.90
2022-10-17T04:09:05.817Z,18.57
2022-10-17T04:11:35.032Z,18.64
2022-10-17T04:14:07.025Z,18.60
2022-10-17T04:16:35.918Z,18.73
2022-10-17T04:19:05.059Z,18.99
2022-10-17T04:21:33.532Z,19.05
2022-10-17T04:24:04.257Z,18.96
2022-10-17T04:26:35.946Z,19.14
2022-10-17T04:29:07.704Z,19.09
2022-10-17T04:31:36.227Z,18.83
2022-10-17T04:34:05.488Z,19.21
2022-10-17T04:36:34.802Z,18.38
2022-10-17T04:39:05.293Z,18.83
2022-10-17T04:41:35.537Z,18.99
2022-10-17T04:44:03.915Z,18.86
2022-10-17T04:46:34.618Z,19.07
2022-10-17T04:49:04.941Z,18.77
2022-10-17T04:51:36.249Z,19.09
2022-10-17T04:54:05.480Z,18.94
2022-10-17T04:56:39.288Z,18.69
2022-10-17T04:59:09.984Z,18.79
2022-10-17T05:01:38.591Z,19.11
2022-10-17T05:04:07.924Z,18.84
2022-10-17T05:06:37.947Z,18.71
2022-10-17T05:09:07.063Z,19.25
2022-10-17T05:11:40.438Z,19.48
2022-10-17T05:14:09.943Z,19.15
2022-10-17T05:16:39.114Z,18.74
2022-10-17T05:19:08.880Z,18.97
2022-10-17T05:21:45.024Z,19.11
2022-10-17T05:24:16.124Z,18.86
2022-10-17T05:26:46.557Z,19.28
2022-10-17T05:29:15.841Z,19.06
2022-10-17T05:31:44.792Z,19.17
2022-10-17T05:34:14.031Z,18.84
2022-10-17T05:36:43.367Z,18.94
2022-10-17T05:39:14.848Z,19.47
2022-10-17T05:41:43.516Z,19.06
2022-10-17T05:44:15.733Z,19.18
2022-10-17T05:46:44.247Z,18.94
2022-10-17T05:49:31.932Z,18.95
2022-10-17T05:52:05.532Z,19.13
2022-10-17T05:54:34.623Z,19.31
2022-10-17T05:57:04.991Z,19.21
2022-10-17T05:59:35.785Z,19.20
2022-10-17T06:02:05.469Z,19.04
2022-10-17T06:04:35.073Z,19.55
2022-10-17T06:07:03.817Z,19.70
2022-10-17T06:09:32.571Z,19.45
2022-10-17T06:12:01.499Z,19.70
2022-10-17T06:14:30.053Z,19.77
2022-10-17T06:17:01.153Z,19.79
2022-10-17T06:19:32.576Z,19.81
2022-10-17T06:22:01.252Z,19.67
2022-10-17T06:24:29.797Z,19.72
2022-10-17T06:26:59.233Z,19.29
2022-10-17T06:29:28.374Z,19.02
2022-10-17T06:31:57.104Z,19.70
2022-10-17T06:34:27.338Z,19.36
2022-10-17T06:39:27.464Z,19.44
2022-10-17T06:41:57.125Z,19.36
2022-10-17T06:44:31.006Z,19.11
2022-10-17T06:47:02.454Z,19.57
2022-10-17T06:49:35.288Z,19.49
2022-10-17T06:52:04.494Z,19.70
2022-10-17T06:54:34.879Z,19.41
2022-10-17T06:57:03.830Z,19.27
2022-10-17T06:59:34.500Z,19.59
2022-10-17T07:02:03.504Z,19.60
2022-10-17T07:04:40.024Z,19.60
2022-10-17T07:07:09.536Z,19.68
2022-10-17T07:09:40.482Z,19.25
2022-10-17T07:12:12.190Z,19.78
2022-10-17T07:14:40.882Z,19.91
2022-10-17T07:17:10.635Z,19.76
2022-10-17T07:19:43.394Z,19.90
2022-10-17T07:22:14.135Z,19.81
2022-10-17T07:24:43.846Z,19.80
2022-10-17T07:27:12.366Z,20.10
2022-10-17T07:29:42.422Z,19.51
2022-10-17T07:32:12.116Z,20.05
2022-10-17T07:34:42.035Z,19.49
2022-10-17T07:37:10.720Z,19.68
2022-10-17T07:39:41.189Z,20.07
2022-10-17T07:42:10.031Z,20.14
2022-10-17T07:44:38.722Z,20.02
2022-10-17T07:47:09.256Z,20.10
2022-10-17T07:49:44.189Z,20.61
2022-10-17T07:52:13.544Z,20.46
2022-10-17T07:54:42.703Z,20.03
2022-10-17T07:57:11.997Z,20.36
2022-10-17T07:59:40.865Z,20.28
2022-10-17T08:02:15.436Z,20.27
2022-10-17T08:04:45.839Z,19.77
2022-10-17T08:07:22.119Z,20.11
2022-10-17T08:09:53.374Z,19.96
2022-10-17T08:12:22.421Z,20.16
2022-10-17T08:14:52.278Z,20.40
2022-10-17T08:17:23.369Z,20.45
2022-10-17T08:19:54.195Z,20.18
2022-10-17T08:22:23.052Z,20.24
2022-10-17T08:24:52.651Z,20.11
2022-10-17T08:27:25.196Z,20.60
2022-10-17T08:29:55.567Z,20.35
2022-10-17T08:32:29.958Z,20.27
2022-10-17T08:35:00.148Z,20.35
2022-10-17T08:37:31.861Z,20.71
2022-10-17T08:40:01.635Z,20.61
2022-10-17T08:43:01.525Z,20.56
2022-10-17T08:45:37.521Z,20.42
2022-10-17T08:48:13.832Z,20.65
2022-10-17T08:50:49.071Z,21.00
2022-10-17T08:53:24.199Z,20.94
2022-10-17T08:55:54.972Z,21.20
2022-10-17T08:58:29.612Z,20.97
2022-10-17T09:01:12.673Z,20.51
2022-10-17T09:04:08.926Z,20.97
2022-10-17T09:06:44.789Z,20.99
2022-10-17T09:09:29.472Z,20.83
2022-10-17T09:12:16.951Z,21.14
2022-10-17T09:15:12.277Z,21.54
2022-10-17T09:17:53.278Z,21.10
2022-10-17T09:20:27.628Z,20.45
2022-10-17T09:23:03.010Z,20.11
2022-10-17T09:25:35.369Z,20.76
2022-10-17T09:28:14.114Z,20.90
2022-10-17T09:30:46.722Z,20.69
2022-10-17T09:33:34.431Z,20.90
2022-10-17T09:36:07.618Z,20.56
2022-10-17T09:38:44.370Z,20.67
2022-10-17T09:44:23.884Z,21.14
2022-10-17T09:47:12.841Z,21.04
2022-10-17T09:49:44.328Z,21.16
2022-10-17T09:52:17.847Z,21.15
2022-10-17T09:54:53.753Z,21.20
2022-10-17T09:57:24.227Z,21.29
2022-10-17T10:00:01.463Z,20.72
2022-10-17T10:02:36.345Z,20.80
2022-10-17T10:05:08.208Z,20.94
2022-10-17T10:07:40.293Z,21.05
2022-10-17T10:10:28.132Z,21.52
2022-10-17T10:13:09.085Z,21.50
2022-10-17T10:15:41.144Z,21.69
2022-10-17T10:18:33.229Z,21.13
2022-10-17T10:21:16.438Z,21.45
2022-10-17T10:23:46.617Z,21.48
2022-10-17T10:26:39.694Z,21.67
2022-10-17T10:29:28.948Z,21.32
2022-10-17T10:31:59.863Z,21.55
2022-10-17T10:34:32.706Z,21.41
2022-10-17T10:37:06.379Z,21.30
2022-10-17T10:40:06.363Z,21.59
2022-10-17T10:42:41.406Z,21.62
2022-10-17T10:45:42.922Z,20.99
2022-10-17T10:48:23.329Z,20.93
2022-10-17T10:50:59.440Z,20.82
2022-10-17T10:53:40.039Z,21.15
2022-10-17T10:56:15.807Z,21.09
2022-10-17T10:58:54.526Z,21.18
2022-10-17T11:01:33.119Z,21.05
2022-10-17T11:04:40.211Z,21.25
2022-10-17T11:07:14.846Z,21.13
2022-10-17T11:09:54.369Z,20.87
2022-10-17T11:12:29.784Z,21.16
2022-10-17T11:15:10.067Z,21.14
2022-10-17T11:17:47.285Z,21.05
2022-10-17T11:20:22.917Z,21.10
2022-10-17T11:22:59.483Z,21.07
2022-10-17T11:25:35.930Z,21.03
2022-10-17T11:28:12.977Z,20.18
2022-10-17T11:30:51.354Z,20.30
2022-10-17T11:33:29.342Z,20.24
2022-10-17T11:36:11.426Z,20.42
2022-10-17T11:38:54.546Z,20.03
2022-10-17T11:41:31.226Z,20.17
2022-10-17T11:44:06.569Z,20.00
2022-10-17T11:46:37.729Z,20.04
2022-10-17T11:49:19.861Z,20.11
2022-10-17T11:52:02.363Z,19.85
2022-10-17T11:54:36.789Z,19.62
2022-10-17T11:57:41.266Z,19.51
2022-10-17T12:00:35.770Z,19.55
2022-10-17T12:03:33.030Z,19.86
2022-10-17T12:06:11.475Z,19.62
2022-10-17T12:08:52.029Z,19.92
2022-10-17T12:11:40.809Z,20.02
2022-10-17T12:14:42.667Z,20.14
2022-10-17T12:17:35.454Z,19.83
2022-10-17T12:20:35.113Z,20.08
2022-10-17T12:23:30.533Z,19.78
2022-10-17T12:26:04.690Z,19.60
2022-10-17T12:28:35.875Z,19.81
2022-10-17T12:31:13.390Z,19.80
2022-10-17T12:33:52.247Z,20.11
2022-10-17T12:36:43.251Z,19.48
2022-10-17T12:39:47.618Z,19.92
2022-10-17T12:42:34.659Z,20.05
2022-10-17T12:45:03.486Z,19.98
2022-10-17T12:47:40.621Z,20.21
2022-10-17T12:54:00.696Z,20.58
2022-10-17T12:56:38.253Z,20.74
2022-10-17T12:59:27.031Z,20.78
2022-10-17T13:02:02.491Z,20.98
2022-10-17T13:04:35.349Z,20.72
2022-10-17T13:07:05.559Z,20.49
2022-10-17T13:09:44.520Z,20.95
2022-10-17T13:12:20.445Z,20.74
2022-10-17T13:14:51.506Z,20.94
2022-10-17T13:17:28.260Z,21.24
2022-10-17T13:19:58.373Z,21.32
2022-10-17T13:22:29.939Z,21.53
2022-10-17T13:25:18.090Z,21.41
2022-10-17T13:27:47.631Z,21.49
2022-10-17T13:30:32.006Z,21.20
2022-10-17T13:33:03.731Z,21.78
2022-10-17T13:38:32.180Z,21.64
2022-10-17T13:41:33.711Z,21.61
2022-10-17T13:43:55.018Z,21.69
2022-10-17T13:46:39.251Z,21.46
2022-10-17T13:49:23.246Z,21.80
2022-10-17T13:51:58.855Z,21.83
2022-10-17T13:54:48.397Z,21.85
2022-10-17T13:57:27.012Z,21.97
2022-10-17T13:59:59.049Z,22.10
2022-10-17T14:02:31.109Z,22.06
2022-10-17T14:05:17.679Z,21.79
2022-10-17T14:10:45.303Z,21.73
2022-10-17T14:13:27.709Z,21.91
2022-10-17T14:16:00.574Z,21.81
2022-10-17T14:18:36.411Z,21.92
2022-10-17T14:24:16.124Z,22.09
2022-10-17T14:26:55.289Z,22.21
2022-10-17T14:29:29.832Z,22.06
2022-10-17T14:32:08.460Z,22.02
2022-10-17T14:34:40.628Z,21.79
2022-10-17T14:37:14.487Z,22.35
2022-10-17T14:39:45.194Z,22.11
2022-10-17T14:42:21.730Z,21.95
2022-10-17T14:44:56.256Z,22.72
2022-10-17T14:47:42.609Z,22.40
2022-10-17T14:50:25.948Z,22.60
2022-10-17T14:53:04.156Z,22.39
2022-10-17T14:55:36.094Z,22.05
2022-10-17T14:58:19.341Z,22.39
2022-10-17T15:00:49.354Z,22.37
2022-10-17T15:03:19.519Z,22.18
2022-10-17T15:05:48.435Z,21.91
2022-10-17T15:08:20.025Z,22.23
2022-10-17T15:10:51.974Z,22.26
2022-10-17T15:13:31.111Z,22.28
2022-10-17T15:16:02.933Z,22.24
2022-10-17T15:18:32.440Z,21.93
2022-10-17T15:21:05.315Z,22.03
2022-10-17T15:23:48.227Z,22.13
2022-10-17T15:26:20.825Z,22.21
2022-10-17T15:28:52.526Z,21.95
2022-10-17T15:31:27.209Z,21.90
2022-10-17T15:33:55.689Z,22.05
2022-10-17T15:36:27.742Z,21.55
2022-10-17T15:38:59.909Z,21.55
2022-10-17T15:41:31.966Z,21.65
2022-10-17T15:44:01.568Z,21.87
2022-10-17T15:46:35.591Z,21.71
2022-10-17T15:49:08.949Z,21.46
2022-10-17T15:51:38.044Z,21.39
2022-10-17T15:54:06.956Z,21.42
2022-10-17T15:56:39.492Z,21.33
2022-10-17T15:59:14.750Z,21.15
2022-10-17T16:01:45.387Z,21.41
2022-10-17T16:04:15.717Z,20.82
2022-10-17T16:06:44.597Z,21.21
2022-10-17T16:09:13.605Z,21.16
2022-10-17T16:11:45.895Z,21.10
2022-10-17T16:14:18.093Z,20.86
2022-10-17T16:16:48.289Z,20.92
2022-10-17T16:19:17.055Z,21.12
2022-10-17T16:21:46.156Z,20.66
2022-10-17T16:24:14.712Z,20.93
2022-10-17T16:26:44.906Z,21.06
2022-10-17T16:29:14.488Z,20.42
2022-10-17T16:31:47.034Z,20.33
2022-10-17T16:34:17.754Z,20.73
2022-10-17T16:36:49.602Z,20.58
2022-10-17T16:39:18.180Z,20.74
2022-10-17T16:41:47.995Z,20.90
2022-10-17T16:44:19.345Z,20.47
2022-10-17T16:46:47.967Z,20.48
2022-10-17T16:49:19.372Z,20.61
2022-10-17T16:51:48.513Z,20.68
2022-10-17T16:54:19.310Z,20.55
2022-10-17T16:56:49.356Z,20.23
2022-10-17T16:59:18.412Z,20.31
2022-10-17T17:01:47.202Z,20.38
2022-10-17T17:04:16.403Z,20.43
2022-10-17T17:06:48.492Z,20.27
2022-10-17T17:09:17.206Z,20.15
2022-10-17T17:11:45.749Z,19.99
2022-10-17T17:14:17.309Z,20.28
2022-10-17T17:16:47.311Z,20.11
2022-10-17T17:19:18.139Z,19.96
2022-10-17T17:21:50.935Z,20.09
2022-10-17T17:24:22.324Z,19.90
2022-10-17T17:26:53.977Z,19.95
2022-10-17T17:29:24.246Z,19.55
2022-10-17T17:31:52.786Z,20.17
2022-10-17T17:34:21.884Z,19.99
2022-10-17T17:36:51.945Z,19.76
2022-10-17T17:39:21.073Z,19.73
2022-10-17T17:41:50.367Z,20.12
2022-10-17T17:44:19.588Z,19.64
2022-10-17T17:46:48.530Z,19.70
2022-10-17T17:49:17.410Z,19.98
2022-10-17T17:51:47.840Z,19.76
2022-10-17T17:54:17.964Z,19.83
2022-10-17T17:56:47.116Z,19.70
2022-10-17T17:59:15.654Z,19.80
2022-10-17T18:01:45.092Z,19.28
2022-10-17T18:04:14.049Z,19.59
2022-10-17T18:06:42.831Z,19.55
2022-10-17T18:09:12.122Z,19.61
2022-10-17T18:11:42.036Z,19.31
2022-10-17T18:14:16.854Z,19.55
2022-10-17T18:16:45.946Z,19.65
2022-10-17T18:19:14.414Z,19.58
2022-10-17T18:21:44.550Z,19.67
2022-10-17T18:24:13.294Z,19.56
2022-10-17T18:26:43.248Z,19.50
2022-10-17T18:29:12.874Z,19.66
2022-10-17T18:31:41.159Z,19.73
2022-10-17T18:34:11.131Z,19.57
2022-10-17T18:36:40.680Z,19.72
2022-10-17T18:39:09.323Z,19.80
2022-10-17T18:41:37.709Z,19.98
2022-10-17T18:44:13.163Z,19.67
2022-10-17T18:46:41.807Z,19.70
2022-10-17T18:49:11.874Z,19.68
2022-10-17T18:51:40.497Z,19.21
2022-10-17T18:54:16.799Z,19.36
2022-10-17T18:56:45.535Z,19.63
2022-10-17T18:59:16.040Z,19.38
2022-10-17T19:01:44.895Z,19.43
2022-10-17T19:04:14.332Z,19.03
2022-10-17T19:06:43.810Z,19.51
2022-10-17T19:09:15.421Z,19.18
2022-10-17T19:11:44.712Z,19.48
2022-10-17T19:14:15.192Z,19.53
2022-10-17T19:16:47.185Z,19.31
2022-10-17T19:19:19.522Z,19.60
2022-10-17T19:21:50.141Z,19.36
2022-10-17T19:24:24.716Z,19.18
2022-10-17T19:26:56.154Z,19.27
2022-10-17T19:29:31.769Z,19.33
2022-10-17T19:32:01.325Z,19.51
2022-10-17T19:34:30.159Z,19.56
2022-10-17T19:36:58.550Z,19.69
2022-10-17T19:39:27.225Z,19.72
2022-10-17T19:41:56.338Z,19.63
2022-10-17T19:44:26.587Z,19.67
2022-10-17T19:46:56.982Z,19.38
2022-10-17T19:49:28.176Z,19.59
2022-10-17T19:51:57.480Z,19.46
2022-10-17T19:54:26.131Z,19.59
2022-10-17T19:56:55.429Z,19.58
2022-10-17T19:59:26.858Z,19.37
2022-10-17T20:01:57.668Z,19.47
2022-10-17T20:04:26.322Z,19.49
2022-10-17T20:06:55.470Z,19.54
2022-10-17T20:09:25.091Z,19.37
2022-10-17T20:11:53.535Z,19.44
2022-10-17T20:14:22.141Z,19.39
2022-10-17T20:16:54.113Z,19.43
2022-10-17T20:19:23.010Z,19.41
2022-10-17T20:21:52.914Z,19.42
2022-10-17T20:24:23.150Z,19.39
2022-10-17T20:26:54.266Z,19.32
2022-10-17T20:29:26.025Z,19.32
2022-10-17T20:31:56.644Z,19.34
2022-10-17T20:34:26.060Z,19.39
2022-10-17T20:36:59.130Z,19.37
2022-10-17T20:39:28.872Z,19.38
2022-10-17T20:41:57.520Z,19.41
2022-10-17T20:44:26.165Z,19.35
2022-10-17T20:47:02.211Z,19.42
2022-10-17T20:49:32.515Z,19.41
2022-10-17T20:52:02.057Z,19.42
2022-10-17T20:54:30.687Z,19.41
2022-10-17T20:57:03.940Z,19.43
2022-10-17T20:59:35.177Z,19.46
2022-10-17T21:02:07.431Z,19.38
2022-10-17T21:04:51.236Z,19.45
2022-10-17T21:07:19.636Z,19.40
2022-10-17T21:09:48.345Z,19.39
2022-10-17T21:12:26.066Z,19.34
2022-10-17T21:15:06.763Z,19.30
2022-10-17T21:17:37.828Z,19.29
2022-10-17T21:20:08.862Z,19.21
2022-10-17T21:22:37.521Z,19.23
2022-10-17T21:25:07.854Z,19.22
2022-10-17T21:27:37.468Z,19.17
2022-10-17T21:32:52.016Z,19.12
2022-10-17T21:35:21.361Z,19.13
2022-10-17T21:37:50.098Z,19.10
2022-10-17T21:40:21.552Z,19.12
2022-10-17T21:42:49.981Z,19.09
2022-10-17T21:45:25.250Z,19.04
2022-10-17T21:48:13.179Z,18.97
2022-10-17T21:50:42.362Z,18.95
2022-10-17T21:53:11.262Z,18.94
2022-10-17T21:55:41.263Z,18.95
2022-10-17T21:58:09.997Z,18.90
2022-10-17T22:00:39.689Z,18.86
2022-10-17T22:03:12.757Z,18.85
2022-10-17T22:05:41.567Z,18.85
2022-10-17T22:08:09.954Z,18.91
2022-10-17T22:10:40.159Z,18.77
2022-10-17T22:13:10.002Z,18.72
2022-10-17T22:15:38.383Z,18.70
2022-10-17T22:18:09.147Z,18.66
2022-10-17T22:20:38.306Z,18.60
2022-10-17T22:23:08.305Z,18.58
2022-10-17T22:25:39.044Z,18.52
2022-10-17T22:28:07.530Z,18.54
2022-10-17T22:30:36.270Z,18.50
2022-10-17T22:33:04.652Z,18.45
2022-10-17T22:35:35.376Z,18.41
2022-10-17T22:38:04.234Z,18.35
2022-10-17T22:40:32.699Z,18.34
2022-10-17T22:43:01.465Z,18.36
2022-10-17T22:45:31.175Z,18.34
2022-10-17T22:48:00.721Z,18.27
2022-10-17T22:50:29.409Z,18.27
2022-10-17T22:52:59.197Z,18.29
2022-10-17T22:55:27.861Z,18.25
2022-10-17T22:57:57.780Z,18.23
2022-10-17T23:00:26.279Z,18.20
2022-10-17T23:02:55.754Z,18.35
2022-10-17T23:05:24.652Z,18.29
2022-10-17T23:07:53.541Z,18.20
2022-10-17T23:10:23.714Z,18.19
2022-10-17T23:12:52.414Z,18.15
2022-10-17T23:15:21.305Z,18.14
2022-10-17T23:17:49.736Z,18.14
2022-10-17T23:20:18.743Z,18.10
2022-10-17T23:22:47.302Z,18.05
2022-10-17T23:25:15.617Z,17.95
2022-10-17T23:27:45.875Z,17.96
2022-10-17T23:30:17.194Z,17.94
2022-10-17T23:32:46.692Z,17.89
2022-10-17T23:35:17.884Z,17.89
2022-10-17T23:37:46.774Z,17.87
2022-10-17T23:40:15.698Z,17.81
2022-10-17T23:42:49.157Z,17.85
2022-10-17T23:45:17.886Z,17.85
2022-10-17T23:47:48.140Z,17.84
2022-10-17T23:50:17.465Z,17.95
2022-10-17T23:52:47.403Z,17.95
2022-10-17T23:55:16.636Z,17.97
2022-10-17T23:57:46.937Z,17.89
